sensor_id;sensor_type;location;lat;lon;timestamp;P1;durP1;ratioP1;P2;durP2;ratioP2
35496;SDS011;21609;49.298;6.844;2022-12-07T00:01:09;4.30;;;3.90;;
35496;SDS011;21609;49.298;6.844;2022-12-07T00:03:35;3.33;;;3.03;;
35496;SDS011;21609;49.298;6.844;2022-12-07T00:06:02;4.63;;;4.22;;
35496;SDS011;21609;49.298;6.844;2022-12-07T00:08:29;6.60;;;4.38;;
35496;SDS011;21609;49.298;6.844;2022-12-07T00:11:00;4.28;;;3.95;;
35496;SDS011;21609;49.298;6.844;2022-12-07T00:13:33;4.47;;;3.70;;
35496;SDS011;21609;49.298;6.844;2022-12-07T00:16:04;4.88;;;4.00;;
35496;SDS011;21609;49.298;6.844;2022-12-07T00:18:32;3.95;;;3.60;;
35496;SDS011;21609;49.298;6.844;2022-12-07T00:21:01;4.32;;;3.92;;
35496;SDS011;21609;49.298;6.844;2022-12-07T00:23:29;3.88;;;3.58;;
35496;SDS011;21609;49.298;6.844;2022-12-07T00:25:54;4.53;;;4.13;;
35496;SDS011;21609;49.298;6.844;2022-12-07T00:28:20;4.35;;;3.95;;
35496;SDS011;21609;49.298;6.844;2022-12-07T00:30:46;4.38;;;3.95;;
35496;SDS011;21609;49.298;6.844;2022-12-07T00:33:11;3.15;;;2.95;;
35496;SDS011;21609;49.298;6.844;2022-12-07T00:35:37;4.35;;;3.95;;
35496;SDS011;21609;49.298;6.844;2022-12-07T00:38:02;3.90;;;3.60;;
35496;SDS011;21609;49.298;6.844;2022-12-07T00:40:28;4.25;;;3.85;;
35496;SDS011;21609;49.298;6.844;2022-12-07T00:42:53;3.75;;;3.45;;
35496;SDS011;21609;49.298;6.844;2022-12-07T00:45:19;4.30;;;3.90;;
35496;SDS011;21609;49.298;6.844;2022-12-07T00:47:45;3.95;;;3.60;;
35496;SDS011;21609;49.298;6.844;2022-12-07T00:50:10;4.10;;;3.70;;
35496;SDS011;21609;49.298;6.844;2022-12-07T00:52:36;4.43;;;4.03;;
35496;SDS011;21609;49.298;6.844;2022-12-07T00:55:01;3.88;;;3.58;;
35496;SDS011;21609;49.298;6.844;2022-12-07T00:57:27;3.75;;;3.42;;
35496;SDS011;21609;49.298;6.844;2022-12-07T00:59:52;4.57;;;4.00;;
35496;SDS011;21609;49.298;6.844;2022-12-07T01:02:22;3.70;;;3.20;;
35496;SDS011;21609;49.298;6.844;2022-12-07T01:04:48;5.07;;;4.57;;
35496;SDS011;21609;49.298;6.844;2022-12-07T01:07:13;4.68;;;4.00;;
35496;SDS011;21609;49.298;6.844;2022-12-07T01:09:39;3.95;;;3.63;;
35496;SDS011;21609;49.298;6.844;2022-12-07T01:12:05;3.63;;;3.30;;
35496;SDS011;21609;49.298;6.844;2022-12-07T01:14:30;4.28;;;3.88;;
35496;SDS011;21609;49.298;6.844;2022-12-07T01:16:56;3.47;;;3.15;;
35496;SDS011;21609;49.298;6.844;2022-12-07T01:19:21;3.53;;;3.22;;
35496;SDS011;21609;49.298;6.844;2022-12-07T01:21:47;3.72;;;3.42;;
35496;SDS011;21609;49.298;6.844;2022-12-07T01:24:12;3.33;;;3.13;;
35496;SDS011;21609;49.298;6.844;2022-12-07T01:26:38;3.83;;;3.50;;
35496;SDS011;21609;49.298;6.844;2022-12-07T01:29:04;3.92;;;3.63;;
35496;SDS011;21609;49.298;6.844;2022-12-07T01:31:30;3.58;;;3.28;;
35496;SDS011;21609;49.298;6.844;2022-12-07T01:33:57;4.25;;;3.88;;
35496;SDS011;21609;49.298;6.844;2022-12-07T01:36:33;3.80;;;3.50;;
35496;SDS011;21609;49.298;6.844;2022-12-07T01:39:02;3.35;;;3.15;;
35496;SDS011;21609;49.298;6.844;2022-12-07T01:41:31;4.00;;;3.70;;
35496;SDS011;21609;49.298;6.844;2022-12-07T01:46:38;3.78;;;3.30;;
35496;SDS011;21609;49.298;6.844;2022-12-07T01:49:06;4.10;;;3.60;;
35496;SDS011;21609;49.298;6.844;2022-12-07T01:51:37;3.75;;;3.40;;
35496;SDS011;21609;49.298;6.844;2022-12-07T01:54:06;5.57;;;4.55;;
35496;SDS011;21609;49.298;6.844;2022-12-07T01:56:33;3.55;;;3.17;;
35496;SDS011;21609;49.298;6.844;2022-12-07T01:58:58;3.45;;;3.15;;
35496;SDS011;21609;49.298;6.844;2022-12-07T02:01:25;5.13;;;4.63;;
35496;SDS011;21609;49.298;6.844;2022-12-07T02:03:51;4.82;;;3.65;;
35496;SDS011;21609;49.298;6.844;2022-12-07T02:06:19;3.47;;;3.17;;
35496;SDS011;21609;49.298;6.844;2022-12-07T02:08:47;3.63;;;3.33;;
35496;SDS011;21609;49.298;6.844;2022-12-07T02:11:13;3.25;;;3.05;;
35496;SDS011;21609;49.298;6.844;2022-12-07T02:13:40;3.55;;;3.25;;
35496;SDS011;21609;49.298;6.844;2022-12-07T02:25:07;3.45;;;3.15;;
35496;SDS011;21609;49.298;6.844;2022-12-07T02:27:47;4.07;;;3.30;;
35496;SDS011;21609;49.298;6.844;2022-12-07T02:30:31;5.28;;;4.75;;
35496;SDS011;21609;49.298;6.844;2022-12-07T02:33:04;3.13;;;2.90;;
35496;SDS011;21609;49.298;6.844;2022-12-07T02:35:41;5.00;;;4.53;;
35496;SDS011;21609;49.298;6.844;2022-12-07T02:38:20;3.05;;;2.80;;
35496;SDS011;21609;49.298;6.844;2022-12-07T02:43:42;4.70;;;4.28;;
35496;SDS011;21609;49.298;6.844;2022-12-07T02:46:12;3.30;;;3.00;;
35496;SDS011;21609;49.298;6.844;2022-12-07T02:48:41;3.45;;;3.15;;
35496;SDS011;21609;49.298;6.844;2022-12-07T02:51:07;5.47;;;4.97;;
35496;SDS011;21609;49.298;6.844;2022-12-07T02:53:40;3.30;;;3.00;;
35496;SDS011;21609;49.298;6.844;2022-12-07T02:58:58;2.80;;;2.60;;
35496;SDS011;21609;49.298;6.844;2022-12-07T03:01:50;4.25;;;3.90;;
35496;SDS011;21609;49.298;6.844;2022-12-07T03:08:25;4.68;;;4.18;;
35496;SDS011;21609;49.298;6.844;2022-12-07T03:13:37;4.97;;;4.00;;
35496;SDS011;21609;49.298;6.844;2022-12-07T03:16:30;3.17;;;2.88;;
35496;SDS011;21609;49.298;6.844;2022-12-07T03:19:06;4.57;;;4.05;;
35496;SDS011;21609;49.298;6.844;2022-12-07T03:21:38;3.30;;;3.00;;
35496;SDS011;21609;49.298;6.844;2022-12-07T03:24:08;4.35;;;3.95;;
35496;SDS011;21609;49.298;6.844;2022-12-07T03:26:39;2.63;;;2.42;;
35496;SDS011;21609;49.298;6.844;2022-12-07T03:29:31;4.32;;;3.92;;
35496;SDS011;21609;49.298;6.844;2022-12-07T03:34:52;4.40;;;4.00;;
35496;SDS011;21609;49.298;6.844;2022-12-07T03:42:38;3.10;;;2.55;;
35496;SDS011;21609;49.298;6.844;2022-12-07T03:45:04;4.03;;;3.72;;
35496;SDS011;21609;49.298;6.844;2022-12-07T03:47:33;3.92;;;3.60;;
35496;SDS011;21609;49.298;6.844;2022-12-07T03:52:36;4.25;;;3.85;;
35496;SDS011;21609;49.298;6.844;2022-12-07T03:57:47;3.40;;;3.10;;
35496;SDS011;21609;49.298;6.844;2022-12-07T04:00:18;2.97;;;2.65;;
35496;SDS011;21609;49.298;6.844;2022-12-07T04:02:44;3.97;;;3.60;;
35496;SDS011;21609;49.298;6.844;2022-12-07T04:05:10;4.28;;;3.88;;
35496;SDS011;21609;49.298;6.844;2022-12-07T04:07:36;4.03;;;3.40;;
35496;SDS011;21609;49.298;6.844;2022-12-07T04:10:02;6.05;;;4.43;;
35496;SDS011;21609;49.298;6.844;2022-12-07T04:12:28;4.07;;;3.67;;
35496;SDS011;21609;49.298;6.844;2022-12-07T04:14:54;2.50;;;2.30;;
35496;SDS011;21609;49.298;6.844;2022-12-07T04:17:20;4.68;;;3.85;;
35496;SDS011;21609;49.298;6.844;2022-12-07T04:19:45;4.07;;;3.67;;
35496;SDS011;21609;49.298;6.844;2022-12-07T04:22:11;2.70;;;2.50;;
35496;SDS011;21609;49.298;6.844;2022-12-07T04:24:36;4.38;;;3.97;;
35496;SDS011;21609;49.298;6.844;2022-12-07T04:27:05;2.67;;;2.47;;
35496;SDS011;21609;49.298;6.844;2022-12-07T04:29:30;4.78;;;4.38;;
35496;SDS011;21609;49.298;6.844;2022-12-07T04:31:56;4.15;;;3.50;;
35496;SDS011;21609;49.298;6.844;2022-12-07T04:34:22;3.58;;;3.22;;
35496;SDS011;21609;49.298;6.844;2022-12-07T04:36:47;2.85;;;2.65;;
35496;SDS011;21609;49.298;6.844;2022-12-07T04:39:17;3.55;;;3.20;;
35496;SDS011;21609;49.298;6.844;2022-12-07T04:41:49;2.80;;;2.60;;
35496;SDS011;21609;49.298;6.844;2022-12-07T04:44:15;4.38;;;3.50;;
35496;SDS011;21609;49.298;6.844;2022-12-07T04:46:41;2.70;;;2.47;;
35496;SDS011;21609;49.298;6.844;2022-12-07T04:49:07;2.63;;;2.42;;
35496;SDS011;21609;49.298;6.844;2022-12-07T04:51:33;3.75;;;3.45;;
35496;SDS011;21609;49.298;6.844;2022-12-07T04:53:59;3.28;;;2.85;;
35496;SDS011;21609;49.298;6.844;2022-12-07T04:56:24;4.38;;;3.75;;
35496;SDS011;21609;49.298;6.844;2022-12-07T04:58:51;2.40;;;2.20;;
35496;SDS011;21609;49.298;6.844;2022-12-07T05:01:17;4.07;;;3.63;;
35496;SDS011;21609;49.298;6.844;2022-12-07T05:03:43;4.28;;;3.88;;
35496;SDS011;21609;49.298;6.844;2022-12-07T05:06:09;2.63;;;2.42;;
35496;SDS011;21609;49.298;6.844;2022-12-07T05:08:36;3.80;;;3.50;;
35496;SDS011;21609;49.298;6.844;2022-12-07T05:11:03;3.72;;;3.35;;
35496;SDS011;21609;49.298;6.844;2022-12-07T05:13:30;3.67;;;3.35;;
35496;SDS011;21609;49.298;6.844;2022-12-07T05:15:56;3.13;;;2.83;;
35496;SDS011;21609;49.298;6.844;2022-12-07T05:18:21;2.53;;;2.33;;
35496;SDS011;21609;49.298;6.844;2022-12-07T05:20:47;3.83;;;3.45;;
35496;SDS011;21609;49.298;6.844;2022-12-07T05:23:13;2.97;;;2.65;;
35496;SDS011;21609;49.298;6.844;2022-12-07T05:25:38;4.20;;;3.80;;
35496;SDS011;21609;49.298;6.844;2022-12-07T05:28:04;2.90;;;2.70;;
35496;SDS011;21609;49.298;6.844;2022-12-07T05:30:30;4.97;;;4.03;;
35496;SDS011;21609;49.298;6.844;2022-12-07T05:32:56;3.03;;;2.72;;
35496;SDS011;21609;49.298;6.844;2022-12-07T05:35:22;3.60;;;3.30;;
35496;SDS011;21609;49.298;6.844;2022-12-07T05:37:48;2.55;;;2.33;;
35496;SDS011;21609;49.298;6.844;2022-12-07T05:40:14;3.67;;;3.35;;
35496;SDS011;21609;49.298;6.844;2022-12-07T05:42:41;3.50;;;3.20;;
35496;SDS011;21609;49.298;6.844;2022-12-07T05:45:07;4.00;;;3.17;;
35496;SDS011;21609;49.298;6.844;2022-12-07T05:47:33;2.40;;;2.20;;
35496;SDS011;21609;49.298;6.844;2022-12-07T05:49:59;4.00;;;3.60;;
35496;SDS011;21609;49.298;6.844;2022-12-07T05:52:24;4.38;;;3.40;;
35496;SDS011;21609;49.298;6.844;2022-12-07T05:54:50;2.88;;;2.67;;
35496;SDS011;21609;49.298;6.844;2022-12-07T05:57:16;4.00;;;3.70;;
35496;SDS011;21609;49.298;6.844;2022-12-07T05:59:42;3.58;;;3.28;;
35496;SDS011;21609;49.298;6.844;2022-12-07T06:02:12;3.85;;;3.45;;
35496;SDS011;21609;49.298;6.844;2022-12-07T06:04:45;3.80;;;3.15;;
35496;SDS011;21609;49.298;6.844;2022-12-07T06:07:12;4.47;;;4.07;;
35496;SDS011;21609;49.298;6.844;2022-12-07T06:09:39;3.00;;;2.65;;
35496;SDS011;21609;49.298;6.844;2022-12-07T06:12:05;8.85;;;3.38;;
35496;SDS011;21609;49.298;6.844;2022-12-07T06:14:50;4.35;;;3.13;;
35496;SDS011;21609;49.298;6.844;2022-12-07T06:17:16;4.13;;;3.72;;
35496;SDS011;21609;49.298;6.844;2022-12-07T06:19:42;2.92;;;2.65;;
35496;SDS011;21609;49.298;6.844;2022-12-07T06:22:08;5.05;;;2.85;;
35496;SDS011;21609;49.298;6.844;2022-12-07T06:24:35;2.85;;;2.13;;
35496;SDS011;21609;49.298;6.844;2022-12-07T06:27:01;4.97;;;3.60;;
35496;SDS011;21609;49.298;6.844;2022-12-07T06:29:26;4.18;;;2.70;;
35496;SDS011;21609;49.298;6.844;2022-12-07T06:31:52;7.60;;;4.38;;
35496;SDS011;21609;49.298;6.844;2022-12-07T06:34:20;3.28;;;2.08;;
35496;SDS011;21609;49.298;6.844;2022-12-07T06:36:47;4.68;;;3.58;;
35496;SDS011;21609;49.298;6.844;2022-12-07T06:39:17;6.47;;;2.67;;
35496;SDS011;21609;49.298;6.844;2022-12-07T06:41:43;4.10;;;3.38;;
35496;SDS011;21609;49.298;6.844;2022-12-07T06:44:08;3.35;;;2.65;;
35496;SDS011;21609;49.298;6.844;2022-12-07T06:46:34;3.03;;;2.33;;
35496;SDS011;21609;49.298;6.844;2022-12-07T06:49:03;6.05;;;3.90;;
35496;SDS011;21609;49.298;6.844;2022-12-07T06:51:30;3.35;;;2.55;;
35496;SDS011;21609;49.298;6.844;2022-12-07T06:53:56;8.82;;;3.25;;
35496;SDS011;21609;49.298;6.844;2022-12-07T06:56:22;5.18;;;2.78;;
35496;SDS011;21609;49.298;6.844;2022-12-07T06:58:47;4.70;;;3.10;;
35496;SDS011;21609;49.298;6.844;2022-12-07T07:01:14;9.30;;;3.22;;
35496;SDS011;21609;49.298;6.844;2022-12-07T07:03:42;5.07;;;3.63;;
35496;SDS011;21609;49.298;6.844;2022-12-07T07:06:08;3.25;;;2.22;;
35496;SDS011;21609;49.298;6.844;2022-12-07T07:08:34;4.95;;;3.67;;
35496;SDS011;21609;49.298;6.844;2022-12-07T07:11:00;3.70;;;2.60;;
35496;SDS011;21609;49.298;6.844;2022-12-07T07:13:26;3.75;;;3.20;;
35496;SDS011;21609;49.298;6.844;2022-12-07T07:15:52;3.30;;;2.78;;
35496;SDS011;21609;49.298;6.844;2022-12-07T07:18:18;2.80;;;1.95;;
35496;SDS011;21609;49.298;6.844;2022-12-07T07:20:44;3.03;;;2.58;;
35496;SDS011;21609;49.298;6.844;2022-12-07T07:23:10;4.05;;;2.47;;
35496;SDS011;21609;49.298;6.844;2022-12-07T07:25:35;6.63;;;3.97;;
35496;SDS011;21609;49.298;6.844;2022-12-07T07:28:01;4.80;;;3.13;;
35496;SDS011;21609;49.298;6.844;2022-12-07T07:30:27;6.30;;;2.80;;
35496;SDS011;21609;49.298;6.844;2022-12-07T07:32:56;6.32;;;3.08;;
35496;SDS011;21609;49.298;6.844;2022-12-07T07:35:23;5.75;;;2.95;;
35496;SDS011;21609;49.298;6.844;2022-12-07T07:37:49;4.13;;;2.83;;
35496;SDS011;21609;49.298;6.844;2022-12-07T07:40:15;5.50;;;3.67;;
35496;SDS011;21609;49.298;6.844;2022-12-07T07:42:41;6.50;;;3.10;;
35496;SDS011;21609;49.298;6.844;2022-12-07T07:45:06;2.78;;;2.53;;
35496;SDS011;21609;49.298;6.844;2022-12-07T07:47:32;3.53;;;3.17;;
35496;SDS011;21609;49.298;6.844;2022-12-07T07:49:58;5.65;;;2.70;;
35496;SDS011;21609;49.298;6.844;2022-12-07T07:52:24;3.63;;;3.33;;
35496;SDS011;21609;49.298;6.844;2022-12-07T07:54:49;3.47;;;2.78;;
35496;SDS011;21609;49.298;6.844;2022-12-07T07:57:16;2.63;;;2.42;;
35496;SDS011;21609;49.298;6.844;2022-12-07T07:59:41;4.72;;;2.63;;
35496;SDS011;21609;49.298;6.844;2022-12-07T08:02:09;4.05;;;2.40;;
35496;SDS011;21609;49.298;6.844;2022-12-07T08:04:39;4.70;;;2.75;;
35496;SDS011;21609;49.298;6.844;2022-12-07T08:07:05;10.57;;;2.67;;
35496;SDS011;21609;49.298;6.844;2022-12-07T08:09:31;2.80;;;2.38;;
35496;SDS011;21609;49.298;6.844;2022-12-07T08:11:57;5.25;;;2.72;;
35496;SDS011;21609;49.298;6.844;2022-12-07T08:14:23;2.65;;;2.45;;
35496;SDS011;21609;49.298;6.844;2022-12-07T08:16:49;13.45;;;2.58;;
35496;SDS011;21609;49.298;6.844;2022-12-07T08:19:15;3.78;;;2.72;;
35496;SDS011;21609;49.298;6.844;2022-12-07T08:21:41;4.85;;;3.15;;
35496;SDS011;21609;49.298;6.844;2022-12-07T08:24:06;6.75;;;2.55;;
35496;SDS011;21609;49.298;6.844;2022-12-07T08:26:32;5.03;;;2.63;;
35496;SDS011;21609;49.298;6.844;2022-12-07T08:28:58;5.35;;;2.97;;
35496;SDS011;21609;49.298;6.844;2022-12-07T08:31:24;4.38;;;2.88;;
35496;SDS011;21609;49.298;6.844;2022-12-07T08:33:50;5.25;;;2.83;;
35496;SDS011;21609;49.298;6.844;2022-12-07T08:36:16;5.60;;;3.10;;
35496;SDS011;21609;49.298;6.844;2022-12-07T08:38:42;3.42;;;2.47;;
35496;SDS011;21609;49.298;6.844;2022-12-07T08:41:08;5.50;;;3.10;;
35496;SDS011;21609;49.298;6.844;2022-12-07T08:43:34;11.05;;;3.95;;
35496;SDS011;21609;49.298;6.844;2022-12-07T08:46:11;6.03;;;3.92;;
35496;SDS011;21609;49.298;6.844;2022-12-07T08:48:45;6.80;;;3.30;;
35496;SDS011;21609;49.298;6.844;2022-12-07T08:51:17;9.75;;;3.78;;
35496;SDS011;21609;49.298;6.844;2022-12-07T08:53:44;4.15;;;3.05;;
35496;SDS011;21609;49.298;6.844;2022-12-07T08:56:10;6.13;;;3.08;;
35496;SDS011;21609;49.298;6.844;2022-12-07T08:58:36;6.72;;;2.90;;
35496;SDS011;21609;49.298;6.844;2022-12-07T09:01:02;7.07;;;3.88;;
35496;SDS011;21609;49.298;6.844;2022-12-07T09:03:29;8.45;;;3.78;;
35496;SDS011;21609;49.298;6.844;2022-12-07T09:05:55;4.53;;;3.78;;
35496;SDS011;21609;49.298;6.844;2022-12-07T09:08:22;6.97;;;3.88;;
35496;SDS011;21609;49.298;6.844;2022-12-07T09:10:54;11.32;;;4.88;;
35496;SDS011;21609;49.298;6.844;2022-12-07T09:13:19;7.80;;;3.85;;
35496;SDS011;21609;49.298;6.844;2022-12-07T09:15:45;7.43;;;4.00;;
35496;SDS011;21609;49.298;6.844;2022-12-07T09:18:10;7.60;;;3.67;;
35496;SDS011;21609;49.298;6.844;2022-12-07T09:20:36;7.50;;;4.10;;
35496;SDS011;21609;49.298;6.844;2022-12-07T09:23:02;6.95;;;4.15;;
35496;SDS011;21609;49.298;6.844;2022-12-07T09:25:29;5.70;;;4.00;;
35496;SDS011;21609;49.298;6.844;2022-12-07T09:27:56;8.65;;;3.88;;
35496;SDS011;21609;49.298;6.844;2022-12-07T09:30:22;7.55;;;3.03;;
35496;SDS011;21609;49.298;6.844;2022-12-07T09:32:48;5.43;;;3.08;;
35496;SDS011;21609;49.298;6.844;2022-12-07T09:35:13;6.28;;;3.90;;
35496;SDS011;21609;49.298;6.844;2022-12-07T09:37:39;4.68;;;3.28;;
35496;SDS011;21609;49.298;6.844;2022-12-07T09:40:05;7.45;;;3.60;;
35496;SDS011;21609;49.298;6.844;2022-12-07T09:42:35;8.88;;;4.20;;
35496;SDS011;21609;49.298;6.844;2022-12-07T09:45:05;5.38;;;3.25;;
35496;SDS011;21609;49.298;6.844;2022-12-07T09:47:32;5.03;;;3.33;;
35496;SDS011;21609;49.298;6.844;2022-12-07T09:50:06;3.97;;;3.08;;
35496;SDS011;21609;49.298;6.844;2022-12-07T09:52:41;6.70;;;3.58;;
35496;SDS011;21609;49.298;6.844;2022-12-07T09:55:11;5.18;;;3.17;;
35496;SDS011;21609;49.298;6.844;2022-12-07T09:57:38;3.33;;;3.03;;
35496;SDS011;21609;49.298;6.844;2022-12-07T10:00:06;4.97;;;3.30;;
35496;SDS011;21609;49.298;6.844;2022-12-07T10:02:41;8.65;;;3.60;;
35496;SDS011;21609;49.298;6.844;2022-12-07T10:05:36;6.43;;;3.47;;
35496;SDS011;21609;49.298;6.844;2022-12-07T10:08:00;4.90;;;3.22;;
35496;SDS011;21609;49.298;6.844;2022-12-07T10:10:33;5.53;;;3.15;;
35496;SDS011;21609;49.298;6.844;2022-12-07T10:13:04;5.50;;;2.90;;
35496;SDS011;21609;49.298;6.844;2022-12-07T10:18:27;6.22;;;5.43;;
35496;SDS011;21609;49.298;6.844;2022-12-07T10:21:00;5.75;;;4.05;;
35496;SDS011;21609;49.298;6.844;2022-12-07T10:23:36;4.20;;;3.80;;
35496;SDS011;21609;49.298;6.844;2022-12-07T10:26:19;3.70;;;3.33;;
35496;SDS011;21609;49.298;6.844;2022-12-07T10:29:12;4.30;;;3.78;;
35496;SDS011;21609;49.298;6.844;2022-12-07T10:31:58;3.58;;;3.28;;
35496;SDS011;21609;49.298;6.844;2022-12-07T10:34:26;3.80;;;3.30;;
35496;SDS011;21609;49.298;6.844;2022-12-07T10:39:44;4.53;;;3.00;;
35496;SDS011;21609;49.298;6.844;2022-12-07T10:42:22;5.90;;;3.60;;
35496;SDS011;21609;49.298;6.844;2022-12-07T10:45:03;3.35;;;2.83;;
35496;SDS011;21609;49.298;6.844;2022-12-07T10:47:44;5.10;;;3.33;;
35496;SDS011;21609;49.298;6.844;2022-12-07T10:53:15;7.82;;;3.20;;
35496;SDS011;21609;49.298;6.844;2022-12-07T10:59:03;6.70;;;2.75;;
35496;SDS011;21609;49.298;6.844;2022-12-07T11:01:35;4.18;;;2.45;;
35496;SDS011;21609;49.298;6.844;2022-12-07T11:04:25;3.90;;;2.63;;
35496;SDS011;21609;49.298;6.844;2022-12-07T11:07:06;2.75;;;2.45;;
35496;SDS011;21609;49.298;6.844;2022-12-07T11:15:48;3.00;;;2.70;;
35496;SDS011;21609;49.298;6.844;2022-12-07T11:18:26;3.03;;;2.83;;
35496;SDS011;21609;49.298;6.844;2022-12-07T11:20:59;3.38;;;2.92;;
35496;SDS011;21609;49.298;6.844;2022-12-07T11:23:43;4.80;;;3.93;;
35496;SDS011;21609;49.298;6.844;2022-12-07T11:37:36;2.80;;;2.50;;
35496;SDS011;21609;49.298;6.844;2022-12-07T11:40:20;4.20;;;3.05;;
35496;SDS011;21609;49.298;6.844;2022-12-07T11:42:58;4.13;;;2.47;;
35496;SDS011;21609;49.298;6.844;2022-12-07T11:45:46;3.15;;;2.47;;
35496;SDS011;21609;49.298;6.844;2022-12-07T11:48:21;5.32;;;2.60;;
35496;SDS011;21609;49.298;6.844;2022-12-07T11:50:57;4.35;;;2.70;;
35496;SDS011;21609;49.298;6.844;2022-12-07T11:55:59;3.65;;;2.78;;
35496;SDS011;21609;49.298;6.844;2022-12-07T12:04:02;5.28;;;1.92;;
35496;SDS011;21609;49.298;6.844;2022-12-07T12:06:44;3.35;;;2.58;;
35496;SDS011;21609;49.298;6.844;2022-12-07T12:09:17;4.15;;;2.53;;
35496;SDS011;21609;49.298;6.844;2022-12-07T12:18:09;4.60;;;2.47;;
35496;SDS011;21609;49.298;6.844;2022-12-07T12:21:00;4.05;;;2.53;;
35496;SDS011;21609;49.298;6.844;2022-12-07T12:23:35;7.03;;;2.40;;
35496;SDS011;21609;49.298;6.844;2022-12-07T12:26:07;2.75;;;2.05;;
35496;SDS011;21609;49.298;6.844;2022-12-07T12:28:57;3.85;;;2.75;;
35496;SDS011;21609;49.298;6.844;2022-12-07T12:34:03;4.03;;;2.00;;
35496;SDS011;21609;49.298;6.844;2022-12-07T12:36:48;4.38;;;2.13;;
35496;SDS011;21609;49.298;6.844;2022-12-07T12:39:15;8.27;;;2.25;;
35496;SDS011;21609;49.298;6.844;2022-12-07T12:46:53;6.10;;;2.60;;
35496;SDS011;21609;49.298;6.844;2022-12-07T12:49:31;6.43;;;2.30;;
35496;SDS011;21609;49.298;6.844;2022-12-07T12:55:00;5.65;;;2.90;;
35496;SDS011;21609;49.298;6.844;2022-12-07T12:57:36;8.20;;;3.60;;
35496;SDS011;21609;49.298;6.844;2022-12-07T13:00:19;4.90;;;3.35;;
35496;SDS011;21609;49.298;6.844;2022-12-07T13:05:25;4.97;;;3.45;;
35496;SDS011;21609;49.298;6.844;2022-12-07T13:07:57;4.82;;;3.30;;
35496;SDS011;21609;49.298;6.844;2022-12-07T13:15:37;4.50;;;3.13;;
35496;SDS011;21609;49.298;6.844;2022-12-07T13:20:51;6.35;;;3.22;;
35496;SDS011;21609;49.298;6.844;2022-12-07T13:23:29;3.33;;;3.03;;
35496;SDS011;21609;49.298;6.844;2022-12-07T13:28:49;8.60;;;3.08;;
35496;SDS011;21609;49.298;6.844;2022-12-07T13:33:48;3.67;;;3.17;;
35496;SDS011;21609;49.298;6.844;2022-12-07T13:36:21;5.97;;;2.83;;
35496;SDS011;21609;49.298;6.844;2022-12-07T13:38:49;4.20;;;2.80;;
35496;SDS011;21609;49.298;6.844;2022-12-07T13:41:18;3.63;;;2.80;;
35496;SDS011;21609;49.298;6.844;2022-12-07T13:44:08;5.78;;;3.15;;
35496;SDS011;21609;49.298;6.844;2022-12-07T13:49:18;2.58;;;2.30;;
35496;SDS011;21609;49.298;6.844;2022-12-07T13:54:59;2.30;;;2.10;;
35496;SDS011;21609;49.298;6.844;2022-12-07T13:57:31;3.40;;;2.10;;
35496;SDS011;21609;49.298;6.844;2022-12-07T14:00:00;3.78;;;2.55;;
35496;SDS011;21609;49.298;6.844;2022-12-07T14:02:34;3.67;;;2.35;;
35496;SDS011;21609;49.298;6.844;2022-12-07T14:07:35;2.45;;;2.13;;
35496;SDS011;21609;49.298;6.844;2022-12-07T14:10:03;4.10;;;2.40;;
35496;SDS011;21609;49.298;6.844;2022-12-07T14:12:30;3.67;;;1.98;;
35496;SDS011;21609;49.298;6.844;2022-12-07T14:14:58;3.47;;;2.00;;
35496;SDS011;21609;49.298;6.844;2022-12-07T14:17:26;4.18;;;2.20;;
35496;SDS011;21609;49.298;6.844;2022-12-07T14:19:54;2.33;;;1.80;;
35496;SDS011;21609;49.298;6.844;2022-12-07T14:24:49;1.98;;;1.85;;
35496;SDS011;21609;49.298;6.844;2022-12-07T14:27:19;2.10;;;1.85;;
35496;SDS011;21609;49.298;6.844;2022-12-07T14:29:47;3.60;;;2.22;;
35496;SDS011;21609;49.298;6.844;2022-12-07T14:35:00;3.22;;;2.13;;
35496;SDS011;21609;49.298;6.844;2022-12-07T14:37:36;4.38;;;2.05;;
35496;SDS011;21609;49.298;6.844;2022-12-07T14:40:03;2.25;;;1.85;;
35496;SDS011;21609;49.298;6.844;2022-12-07T14:42:30;4.43;;;1.85;;
35496;SDS011;21609;49.298;6.844;2022-12-07T14:44:56;2.20;;;2.00;;
35496;SDS011;21609;49.298;6.844;2022-12-07T14:47:23;2.40;;;1.80;;
35496;SDS011;21609;49.298;6.844;2022-12-07T14:49:50;2.72;;;1.58;;
35496;SDS011;21609;49.298;6.844;2022-12-07T14:52:28;5.53;;;2.15;;
35496;SDS011;21609;49.298;6.844;2022-12-07T14:54:55;1.92;;;1.83;;
35496;SDS011;21609;49.298;6.844;2022-12-07T14:57:21;4.40;;;2.13;;
35496;SDS011;21609;49.298;6.844;2022-12-07T14:59:46;1.80;;;1.70;;
35496;SDS011;21609;49.298;6.844;2022-12-07T15:02:12;2.30;;;2.10;;
35496;SDS011;21609;49.298;6.844;2022-12-07T15:04:39;2.70;;;1.65;;
35496;SDS011;21609;49.298;6.844;2022-12-07T15:07:06;1.98;;;1.60;;
35496;SDS011;21609;49.298;6.844;2022-12-07T15:09:35;1.95;;;1.75;;
35496;SDS011;21609;49.298;6.844;2022-12-07T15:12:00;3.40;;;1.98;;
35496;SDS011;21609;49.298;6.844;2022-12-07T15:14:26;3.92;;;2.10;;
35496;SDS011;21609;49.298;6.844;2022-12-07T15:16:52;2.88;;;2.20;;
35496;SDS011;21609;49.298;6.844;2022-12-07T15:19:18;2.00;;;1.90;;
35496;SDS011;21609;49.298;6.844;2022-12-07T15:21:48;2.08;;;1.73;;
35496;SDS011;21609;49.298;6.844;2022-12-07T15:24:14;2.95;;;1.95;;
35496;SDS011;21609;49.298;6.844;2022-12-07T15:26:40;3.95;;;2.20;;
35496;SDS011;21609;49.298;6.844;2022-12-07T15:29:06;3.05;;;1.80;;
35496;SDS011;21609;49.298;6.844;2022-12-07T15:31:33;2.13;;;1.90;;
35496;SDS011;21609;49.298;6.844;2022-12-07T15:33:59;3.60;;;1.83;;
35496;SDS011;21609;49.298;6.844;2022-12-07T15:36:25;3.38;;;1.88;;
35496;SDS011;21609;49.298;6.844;2022-12-07T15:38:53;4.38;;;2.63;;
35496;SDS011;21609;49.298;6.844;2022-12-07T15:41:19;3.22;;;2.25;;
35496;SDS011;21609;49.298;6.844;2022-12-07T15:43:45;2.85;;;2.10;;
35496;SDS011;21609;49.298;6.844;2022-12-07T15:46:30;6.00;;;2.38;;
35496;SDS011;21609;49.298;6.844;2022-12-07T15:49:00;2.90;;;2.13;;
35496;SDS011;21609;49.298;6.844;2022-12-07T15:51:26;5.03;;;2.38;;
35496;SDS011;21609;49.298;6.844;2022-12-07T15:53:52;4.18;;;1.90;;
35496;SDS011;21609;49.298;6.844;2022-12-07T15:56:18;9.15;;;3.03;;
35496;SDS011;21609;49.298;6.844;2022-12-07T15:58:44;5.70;;;2.33;;
35496;SDS011;21609;49.298;6.844;2022-12-07T16:01:11;3.78;;;2.33;;
35496;SDS011;21609;49.298;6.844;2022-12-07T16:03:37;4.82;;;2.20;;
35496;SDS011;21609;49.298;6.844;2022-12-07T16:06:03;5.70;;;2.38;;
35496;SDS011;21609;49.298;6.844;2022-12-07T16:08:29;2.97;;;2.53;;
35496;SDS011;21609;49.298;6.844;2022-12-07T16:10:55;4.90;;;2.33;;
35496;SDS011;21609;49.298;6.844;2022-12-07T16:13:20;4.60;;;2.10;;
35496;SDS011;21609;49.298;6.844;2022-12-07T16:15:46;4.85;;;2.45;;
35496;SDS011;21609;49.298;6.844;2022-12-07T16:18:11;3.55;;;2.03;;
35496;SDS011;21609;49.298;6.844;2022-12-07T16:20:37;4.30;;;2.20;;
35496;SDS011;21609;49.298;6.844;2022-12-07T16:23:03;3.55;;;2.05;;
35496;SDS011;21609;49.298;6.844;2022-12-07T16:25:28;8.48;;;5.78;;
35496;SDS011;21609;49.298;6.844;2022-12-07T16:27:54;14.82;;;10.88;;
35496;SDS011;21609;49.298;6.844;2022-12-07T16:30:20;13.23;;;11.32;;
35496;SDS011;21609;49.298;6.844;2022-12-07T16:32:45;18.25;;;10.65;;
35496;SDS011;21609;49.298;6.844;2022-12-07T16:35:11;11.13;;;9.45;;
35496;SDS011;21609;49.298;6.844;2022-12-07T16:37:37;11.55;;;8.68;;
35496;SDS011;21609;49.298;6.844;2022-12-07T16:40:03;10.38;;;8.15;;
35496;SDS011;21609;49.298;6.844;2022-12-07T16:42:31;9.50;;;7.78;;
35496;SDS011;21609;49.298;6.844;2022-12-07T16:44:57;11.35;;;7.63;;
35496;SDS011;21609;49.298;6.844;2022-12-07T16:47:23;10.73;;;7.72;;
35496;SDS011;21609;49.298;6.844;2022-12-07T16:49:48;9.20;;;7.13;;
35496;SDS011;21609;49.298;6.844;2022-12-07T16:52:14;10.40;;;7.47;;
35496;SDS011;21609;49.298;6.844;2022-12-07T16:54:40;7.78;;;6.78;;
35496;SDS011;21609;49.298;6.844;2022-12-07T16:57:05;8.68;;;6.93;;
35496;SDS011;21609;49.298;6.844;2022-12-07T16:59:31;8.70;;;6.93;;